Time;durP1;ratioP1;P1;durP2;ratioP2;P2;SDS_P1;SDS_P2;PMS_P1;PMS_P2;Temp;Humidity;BMP_temperature;BMP_pressure;BME280_temperature;BME280_humidity;BME280_pressure;Samples;Min_cycle;Max_cycle;Signal;HPM_P1;HPM_P2
2024/01/29 00:00:19;;;;;;;2.37;2.23;;;;;;;;;;5034909;28;20281;-86
2024/01/29 00:02:49;;;;;;;2.43;2.23;;;;;;;;;;5034938;28;20232;-88
2024/01/29 00:05:16;;;;;;;7.93;1.93;;;;;;;;;;5033716;28;20783;-86
2024/01/29 00:07:43;;;;;;;2.13;2.03;;;;;;;;;;5035020;28;20283;-85
2024/01/29 00:10:14;;;;;;;1.70;1.60;;;;;;;;;;5034191;28;20310;-86
2024/01/29 00:12:42;;;;;;;8.93;1.27;;;;;;;;;;5035324;28;20250;-86
2024/01/29 00:15:10;;;;;;;2.10;1.47;;;;;;;;;;5036950;28;20326;-87
2024/01/29 00:17:45;;;;;;;1.50;1.40;;;;;;;;;;5034631;28;20236;-85
2024/01/29 00:20:17;;;;;;;24.90;10.13;;;;;;;;;;5034757;28;20273;-86
2024/01/29 00:22:47;;;;;;;2.53;2.30;;;;;;;;;;5035208;28;20273;-86
2024/01/29 00:25:15;;;;;;;2.63;2.00;;;;;;;;;;5034103;28;20227;-85
2024/01/29 00:27:42;;;;;;;1.53;1.43;;;;;;;;;;5035381;28;20255;-86
2024/01/29 00:30:11;;;;;;;1.77;1.70;;;;;;;;;;5035563;28;20239;-86
2024/01/29 00:32:41;;;;;;;16.20;1.90;;;;;;;;;;5033172;28;20219;-87
2024/01/29 00:35:10;;;;;;;2.33;2.03;;;;;;;;;;5037519;28;20235;-85
2024/01/29 00:37:44;;;;;;;2.93;1.77;;;;;;;;;;5048508;28;20224;-87
2024/01/29 00:40:15;;;;;;;2.20;2.00;;;;;;;;;;5036523;28;20231;-86
2024/01/29 00:42:43;;;;;;;2.20;2.10;;;;;;;;;;5035685;28;20768;-86
2024/01/29 00:45:11;;;;;;;15.17;2.37;;;;;;;;;;5040279;28;20242;-86
2024/01/29 00:47:39;;;;;;;2.90;2.53;;;;;;;;;;5054990;28;20765;-85
2024/01/29 00:50:08;;;;;;;2.20;1.73;;;;;;;;;;5056990;28;20223;-86
2024/01/29 00:52:40;;;;;;;1.90;1.73;;;;;;;;;;5055878;28;20207;-86
2024/01/29 00:55:12;;;;;;;1.80;1.73;;;;;;;;;;5055815;28;20238;-88
2024/01/29 00:57:43;;;;;;;1.67;0.87;;;;;;;;;;5055617;28;20607;-86
2024/01/29 01:00:14;;;;;;;2.37;2.27;;;;;;;;;;5056158;28;20202;-87
2024/01/29 01:02:44;;;;;;;3.70;2.23;;;;;;;;;;5056487;28;20187;-86
2024/01/29 01:05:16;;;;;;;1.50;1.40;;;;;;;;;;5045988;28;20208;-85
2024/01/29 01:07:47;;;;;;;2.60;2.03;;;;;;;;;;5036715;28;20188;-86
2024/01/29 01:10:18;;;;;;;1.77;1.63;;;;;;;;;;5034477;28;20704;-87
2024/01/29 01:12:46;;;;;;;2.13;2.03;;;;;;;;;;5035123;28;20204;-87
2024/01/29 01:15:14;;;;;;;1.30;1.23;;;;;;;;;;5036326;28;20227;-86
2024/01/29 01:17:44;;;;;;;2.27;2.10;;;;;;;;;;5037375;28;20207;-86
2024/01/29 01:20:12;;;;;;;14.50;2.07;;;;;;;;;;5038509;28;20587;-87
2024/01/29 01:22:42;;;;;;;2.30;2.10;;;;;;;;;;5035903;28;20579;-86
2024/01/29 01:25:12;;;;;;;0.80;0.73;;;;;;;;;;5034455;28;20210;-87
2024/01/29 01:27:44;;;;;;;2.00;1.83;;;;;;;;;;5034609;28;20200;-86
2024/01/29 01:30:11;;;;;;;1.70;1.23;;;;;;;;;;5033995;28;20612;-86
2024/01/29 01:32:39;;;;;;;2.53;1.50;;;;;;;;;;5033464;28;20203;-86
2024/01/29 01:35:08;;;;;;;3.47;2.30;;;;;;;;;;5040864;28;20330;-86
2024/01/29 01:37:35;;;;;;;1.93;1.70;;;;;;;;;;5037719;28;20226;-87
2024/01/29 01:40:05;;;;;;;2.93;2.00;;;;;;;;;;5035461;28;20200;-87
2024/01/29 01:42:37;;;;;;;4.53;2.00;;;;;;;;;;5034199;28;20192;-85
2024/01/29 01:45:10;;;;;;;6.30;1.67;;;;;;;;;;5034734;28;20208;-87
2024/01/29 01:47:42;;;;;;;2.23;1.67;;;;;;;;;;5035444;28;20222;-85
2024/01/29 01:50:11;;;;;;;1.70;1.70;;;;;;;;;;5035227;28;20310;-86
2024/01/29 01:52:42;;;;;;;2.43;2.27;;;;;;;;;;5034269;28;20204;-86
2024/01/29 01:55:11;;;;;;;2.47;2.27;;;;;;;;;;5034646;28;20235;-87
2024/01/29 01:57:46;;;;;;;5.40;2.83;;;;;;;;;;5035273;28;20279;-87
2024/01/29 02:00:18;;;;;;;2.27;2.17;;;;;;;;;;5042239;28;20219;-86
2024/01/29 02:02:46;;;;;;;2.33;2.00;;;;;;;;;;5034517;28;20191;-87
2024/01/29 02:05:14;;;;;;;3.57;2.40;;;;;;;;;;5038167;28;20215;-85
2024/01/29 02:07:44;;;;;;;1.40;1.33;;;;;;;;;;5046646;28;20227;-86
2024/01/29 02:10:14;;;;;;;2.23;2.03;;;;;;;;;;5043415;28;20263;-85
2024/01/29 02:12:42;;;;;;;5.40;2.17;;;;;;;;;;5043879;28;20679;-85
2024/01/29 02:15:14;;;;;;;2.57;2.40;;;;;;;;;;5042987;28;20295;-87
2024/01/29 02:17:44;;;;;;;4.00;2.33;;;;;;;;;;5039125;28;20200;-85
2024/01/29 02:20:12;;;;;;;2.77;1.83;;;;;;;;;;5037880;28;20227;-86
2024/01/29 02:22:46;;;;;;;2.20;2.10;;;;;;;;;;5036008;28;20224;-87
2024/01/29 02:25:15;;;;;;;5.47;2.30;;;;;;;;;;5040021;28;20237;-87
2024/01/29 02:27:45;;;;;;;1.67;1.40;;;;;;;;;;5035444;28;20492;-86
2024/01/29 02:30:13;;;;;;;1.97;1.87;;;;;;;;;;5034064;28;20270;-86
2024/01/29 02:32:43;;;;;;;1.23;1.13;;;;;;;;;;5032717;28;20254;-86
2024/01/29 02:35:10;;;;;;;1.97;1.53;;;;;;;;;;5032770;28;20246;-85
2024/01/29 02:37:38;;;;;;;3.33;1.93;;;;;;;;;;5033545;28;20664;-86
2024/01/29 02:40:09;;;;;;;3.50;1.80;;;;;;;;;;5033204;28;20206;-86
2024/01/29 02:42:37;;;;;;;1.80;1.70;;;;;;;;;;5033821;28;20212;-85
2024/01/29 02:45:05;;;;;;;2.17;1.73;;;;;;;;;;5033793;28;20584;-85
2024/01/29 02:47:35;;;;;;;5.73;2.47;;;;;;;;;;5034105;28;20212;-86
2024/01/29 02:50:04;;;;;;;3.23;2.37;;;;;;;;;;5033783;28;20203;-86
2024/01/29 02:52:36;;;;;;;2.57;2.40;;;;;;;;;;5032670;28;20282;-83
2024/01/29 02:55:05;;;;;;;2.57;1.80;;;;;;;;;;5032464;28;20210;-85
2024/01/29 02:57:40;;;;;;;1.70;1.23;;;;;;;;;;5032493;28;20277;-87
2024/01/29 03:00:09;;;;;;;2.00;1.90;;;;;;;;;;5032026;28;20218;-86
2024/01/29 03:02:39;;;;;;;4.17;2.80;;;;;;;;;;5032713;28;20192;-87
2024/01/29 03:05:13;;;;;;;2.47;2.37;;;;;;;;;;5032823;28;20192;-86
2024/01/29 03:07:42;;;;;;;3.20;2.00;;;;;;;;;;5032577;28;20207;-86
2024/01/29 03:10:12;;;;;;;5.83;2.83;;;;;;;;;;5032721;28;20732;-86
2024/01/29 03:12:45;;;;;;;3.10;1.70;;;;;;;;;;5032517;28;20204;-86
2024/01/29 03:15:14;;;;;;;2.33;1.63;;;;;;;;;;5032408;28;20280;-85
2024/01/29 03:17:43;;;;;;;4.67;1.70;;;;;;;;;;5033308;28;20296;-86
2024/01/29 03:20:12;;;;;;;1.33;1.23;;;;;;;;;;5033049;28;20291;-86
2024/01/29 03:22:40;;;;;;;2.53;1.00;;;;;;;;;;5034517;28;20210;-87
2024/01/29 03:25:10;;;;;;;1.90;1.80;;;;;;;;;;5036843;28;20676;-88
2024/01/29 03:27:39;;;;;;;1.47;1.37;;;;;;;;;;5036781;28;20199;-86
2024/01/29 03:30:11;;;;;;;2.10;2.00;;;;;;;;;;5036095;28;20203;-86
2024/01/29 03:32:38;;;;;;;8.13;2.77;;;;;;;;;;5035902;28;20641;-87
2024/01/29 03:35:07;;;;;;;3.90;2.70;;;;;;;;;;5036543;28;20226;-86
2024/01/29 03:37:41;;;;;;;3.07;2.30;;;;;;;;;;5035364;28;20214;-85
2024/01/29 03:40:09;;;;;;;2.77;2.37;;;;;;;;;;5037423;28;20208;-87
2024/01/29 03:42:41;;;;;;;3.03;2.63;;;;;;;;;;5036890;28;20639;-85
2024/01/29 03:45:11;;;;;;;5.80;1.70;;;;;;;;;;5037146;28;20370;-86
2024/01/29 03:47:41;;;;;;;1.53;1.47;;;;;;;;;;5036135;28;20203;-86
2024/01/29 03:50:09;;;;;;;4.57;2.63;;;;;;;;;;5036552;28;20200;-87
2024/01/29 03:52:38;;;;;;;4.50;2.07;;;;;;;;;;5035609;28;20652;-86
2024/01/29 03:55:07;;;;;;;2.40;2.30;;;;;;;;;;5037095;28;20188;-86
2024/01/29 03:57:38;;;;;;;2.57;2.33;;;;;;;;;;5036376;28;20673;-86
2024/01/29 04:00:08;;;;;;;1.43;1.27;;;;;;;;;;5036129;28;20202;-86
2024/01/29 04:02:38;;;;;;;2.27;2.07;;;;;;;;;;5037117;28;20452;-85
2024/01/29 04:05:10;;;;;;;4.70;2.17;;;;;;;;;;5038194;28;20459;-86
2024/01/29 04:07:41;;;;;;;1.93;1.73;;;;;;;;;;5043311;28;20200;-86
2024/01/29 04:10:09;;;;;;;3.33;2.47;;;;;;;;;;5043947;28;20235;-87
2024/01/29 04:12:37;;;;;;;9.17;2.03;;;;;;;;;;5056336;28;20259;-85
2024/01/29 04:15:08;;;;;;;2.10;2.00;;;;;;;;;;5045169;28;20702;-87
2024/01/29 04:17:35;;;;;;;2.53;2.10;;;;;;;;;;5035928;28;20712;-86
2024/01/29 04:20:08;;;;;;;5.03;2.67;;;;;;;;;;5035721;28;20290;-86
2024/01/29 04:22:41;;;;;;;3.47;3.00;;;;;;;;;;5034085;28;20452;-86
2024/01/29 04:25:10;;;;;;;3.60;2.17;;;;;;;;;;5036232;28;20226;-87
2024/01/29 04:27:37;;;;;;;2.40;1.77;;;;;;;;;;5036251;28;20584;-87
2024/01/29 04:30:07;;;;;;;3.37;2.77;;;;;;;;;;5036008;28;20283;-86
2024/01/29 04:32:35;;;;;;;2.90;2.40;;;;;;;;;;5036948;28;20195;-86
2024/01/29 04:35:06;;;;;;;2.77;2.57;;;;;;;;;;5036108;28;20223;-87
2024/01/29 04:37:34;;;;;;;1.90;1.50;;;;;;;;;;5035537;28;20259;-84
2024/01/29 04:40:04;;;;;;;4.80;2.57;;;;;;;;;;5017600;28;20223;-87
2024/01/29 04:42:32;;;;;;;2.73;1.87;;;;;;;;;;5035648;28;20196;-86
2024/01/29 04:45:03;;;;;;;3.07;2.20;;;;;;;;;;5036287;28;20705;-87
2024/01/29 04:47:33;;;;;;;4.43;2.23;;;;;;;;;;5035828;28;20238;-86
2024/01/29 04:50:00;;;;;;;2.43;2.17;;;;;;;;;;5036636;28;20250;-87
2024/01/29 04:52:29;;;;;;;2.93;2.17;;;;;;;;;;5037200;28;20207;-86
2024/01/29 04:54:58;;;;;;;2.70;2.10;;;;;;;;;;5037348;28;20212;-86
2024/01/29 04:57:26;;;;;;;3.73;2.67;;;;;;;;;;5036360;28;20297;-87
2024/01/29 04:59:59;;;;;;;6.00;3.80;;;;;;;;;;5035613;28;20299;-86
2024/01/29 05:02:27;;;;;;;3.20;2.20;;;;;;;;;;5036866;28;20238;-87
2024/01/29 05:04:55;;;;;;;4.93;2.90;;;;;;;;;;5035807;28;20196;-87
2024/01/29 05:07:22;;;;;;;7.30;3.30;;;;;;;;;;5035270;28;20199;-87
2024/01/29 05:09:51;;;;;;;7.63;3.37;;;;;;;;;;5038874;28;20257;-86
2024/01/29 05:12:21;;;;;;;3.67;3.20;;;;;;;;;;5039050;28;20195;-87
2024/01/29 05:15:15;;;;;;;4.93;3.17;;;;;;;;;;5038699;28;20211;-88
2024/01/29 05:17:43;;;;;;;7.63;4.07;;;;;;;;;;5042197;28;20231;-87
2024/01/29 05:20:14;;;;;;;4.13;3.77;;;;;;;;;;5043554;28;20269;-87
2024/01/29 05:22:42;;;;;;;4.07;2.47;;;;;;;;;;5046935;28;20204;-86
2024/01/29 05:25:16;;;;;;;4.40;3.40;;;;;;;;;;5055387;28;20227;-87
2024/01/29 05:27:46;;;;;;;2.43;2.33;;;;;;;;;;5054100;28;20214;-85
2024/01/29 05:30:15;;;;;;;10.03;2.43;;;;;;;;;;5021292;28;20231;-87
2024/01/29 05:32:42;;;;;;;2.27;2.17;;;;;;;;;;5030102;28;20206;-87
2024/01/29 05:35:10;;;;;;;3.73;1.93;;;;;;;;;;5035199;28;20238;-88
2024/01/29 05:37:41;;;;;;;3.57;2.57;;;;;;;;;;5034909;28;20224;-85
2024/01/29 05:40:11;;;;;;;7.13;2.17;;;;;;;;;;5040394;28;20200;-87
2024/01/29 05:42:40;;;;;;;5.10;2.40;;;;;;;;;;5041727;28;20703;-87
2024/01/29 05:45:09;;;;;;;4.10;2.33;;;;;;;;;;5051978;28;20215;-87
2024/01/29 05:47:42;;;;;;;3.73;2.00;;;;;;;;;;5055730;28;20196;-87
2024/01/29 05:50:10;;;;;;;2.77;2.57;;;;;;;;;;5034229;28;20744;-86
2024/01/29 05:52:41;;;;;;;2.67;2.50;;;;;;;;;;5035001;28;20196;-86
2024/01/29 05:55:09;;;;;;;6.57;2.93;;;;;;;;;;5035274;28;20203;-86
2024/01/29 05:57:37;;;;;;;1.53;1.07;;;;;;;;;;5032806;28;20208;-85
2024/01/29 06:00:10;;;;;;;5.90;2.37;;;;;;;;;;5013179;28;20282;-87
2024/01/29 06:02:42;;;;;;;4.83;2.10;;;;;;;;;;5014561;28;20220;-85
2024/01/29 06:05:10;;;;;;;20.13;2.93;;;;;;;;;;5013769;28;20288;-86
2024/01/29 06:07:39;;;;;;;2.93;1.73;;;;;;;;;;5015939;28;20196;-87
2024/01/29 06:10:11;;;;;;;4.27;2.40;;;;;;;;;;5015434;28;20247;-86
2024/01/29 06:12:41;;;;;;;6.23;4.17;;;;;;;;;;5014850;28;20339;-86
2024/01/29 06:15:13;;;;;;;5.70;2.10;;;;;;;;;;5016352;28;20299;-88
2024/01/29 06:17:46;;;;;;;1.23;1.23;;;;;;;;;;5017261;28;20312;-85
2024/01/29 06:20:14;;;;;;;6.67;2.13;;;;;;;;;;5028289;28;20219;-87
2024/01/29 06:22:46;;;;;;;3.47;2.50;;;;;;;;;;5035802;28;20215;-86
2024/01/29 06:25:13;;;;;;;5.87;2.80;;;;;;;;;;5033342;28;20188;-86
2024/01/29 06:27:42;;;;;;;3.30;2.03;;;;;;;;;;5035965;28;20200;-87
2024/01/29 06:30:14;;;;;;;3.77;2.20;;;;;;;;;;5035519;28;20196;-87
2024/01/29 06:32:42;;;;;;;5.03;1.27;;;;;;;;;;5033553;28;20242;-87
2024/01/29 06:35:15;;;;;;;2.90;2.07;;;;;;;;;;5033531;28;20382;-86
2024/01/29 06:37:46;;;;;;;1.93;1.80;;;;;;;;;;5034890;28;20226;-86
2024/01/29 06:40:14;;;;;;;2.27;1.63;;;;;;;;;;5030730;28;20588;-85
2024/01/29 06:42:42;;;;;;;8.70;2.53;;;;;;;;;;5034137;28;20200;-87
2024/01/29 06:45:12;;;;;;;2.00;1.90;;;;;;;;;;5034195;28;20212;-86
2024/01/29 06:47:40;;;;;;;2.70;2.60;;;;;;;;;;5033162;28;20188;-85
2024/01/29 06:50:09;;;;;;;2.00;1.80;;;;;;;;;;5033112;28;20565;-85
2024/01/29 06:52:40;;;;;;;3.07;2.83;;;;;;;;;;5034647;28;20656;-86
2024/01/29 06:55:08;;;;;;;8.30;2.90;;;;;;;;;;5034799;28;20215;-87
2024/01/29 06:57:36;;;;;;;2.33;2.13;;;;;;;;;;5038201;28;20223;-85
2024/01/29 07:00:07;;;;;;;2.47;2.27;;;;;;;;;;5037894;28;20200;-86
2024/01/29 07:02:38;;;;;;;1.80;1.70;;;;;;;;;;5034258;28;20207;-86
2024/01/29 07:05:06;;;;;;;3.47;2.27;;;;;;;;;;5040844;28;20204;-86
2024/01/29 07:07:36;;;;;;;2.63;1.43;;;;;;;;;;5037961;28;20200;-86
2024/01/29 07:10:04;;;;;;;2.80;2.60;;;;;;;;;;5045398;28;20305;-86
2024/01/29 07:12:34;;;;;;;3.27;2.57;;;;;;;;;;5038537;28;20287;-86
2024/01/29 07:15:03;;;;;;;2.27;2.07;;;;;;;;;;5033548;28;20207;-86
2024/01/29 07:17:31;;;;;;;2.80;2.03;;;;;;;;;;5034918;28;20235;-87
2024/01/29 07:20:02;;;;;;;2.13;1.67;;;;;;;;;;5033919;28;20279;-88
2024/01/29 07:22:37;;;;;;;3.23;2.10;;;;;;;;;;5033038;28;20200;-86
2024/01/29 07:28:23;;;;;;;4.67;2.80;;;;;;;;;;4953223;29;20195;-87
2024/01/29 07:30:50;;;;;;;6.70;4.13;;;;;;;;;;4998338;28;20290;-86
2024/01/29 07:33:19;;;;;;;1.60;1.60;;;;;;;;;;5033531;28;20275;-87
2024/01/29 07:35:50;;;;;;;2.57;1.97;;;;;;;;;;5033516;28;20207;-88
2024/01/29 07:38:19;;;;;;;2.17;2.07;;;;;;;;;;5033181;28;20259;-84
2024/01/29 07:40:50;;;;;;;2.30;2.17;;;;;;;;;;5031760;28;20724;-86
2024/01/29 07:43:18;;;;;;;3.23;2.97;;;;;;;;;;5031366;28;20730;-85
2024/01/29 07:45:46;;;;;;;3.17;2.83;;;;;;;;;;5032194;28;20204;-87
2024/01/29 07:48:15;;;;;;;3.77;2.50;;;;;;;;;;5031703;28;20246;-86
2024/01/29 07:50:46;;;;;;;6.43;2.93;;;;;;;;;;5032569;28;20199;-87
2024/01/29 07:53:17;;;;;;;3.07;2.70;;;;;;;;;;5032892;28;20732;-86
2024/01/29 07:55:45;;;;;;;4.47;2.67;;;;;;;;;;5032677;28;20196;-86
2024/01/29 07:58:15;;;;;;;2.90;2.53;;;;;;;;;;5033175;28;21019;-86
2024/01/29 08:00:44;;;;;;;2.93;2.30;;;;;;;;;;5033989;28;20230;-86
2024/01/29 08:03:12;;;;;;;5.50;2.57;;;;;;;;;;5033034;28;20277;-85
2024/01/29 08:05:48;;;;;;;8.60;3.03;;;;;;;;;;5032640;28;20695;-86
2024/01/29 08:08:21;;;;;;;4.03;3.00;;;;;;;;;;5033871;28;20302;-86
2024/01/29 08:10:50;;;;;;;2.63;2.43;;;;;;;;;;5037527;28;20798;-85
2024/01/29 08:13:20;;;;;;;3.17;2.87;;;;;;;;;;5041331;28;20191;-87
2024/01/29 08:15:49;;;;;;;5.00;3.03;;;;;;;;;;5056559;28;20251;-86
2024/01/29 08:18:16;;;;;;;3.63;2.03;;;;;;;;;;5050809;28;20602;-87
2024/01/29 08:20:45;;;;;;;2.90;2.63;;;;;;;;;;5037909;28;20254;-87
2024/01/29 08:23:17;;;;;;;2.33;2.23;;;;;;;;;;5037137;28;20192;-87
2024/01/29 08:25:46;;;;;;;4.23;2.77;;;;;;;;;;5037806;28;20529;-86
2024/01/29 08:28:16;;;;;;;4.63;2.60;;;;;;;;;;5038563;28;20599;-85
2024/01/29 08:31:06;;;;;;;4.23;2.93;;;;;;;;;;5036330;28;20196;-86
2024/01/29 08:33:39;;;;;;;2.53;2.23;;;;;;;;;;5035883;28;20196;-85
2024/01/29 08:36:06;;;;;;;9.77;3.37;;;;;;;;;;5037034;28;20227;-87
2024/01/29 08:38:35;;;;;;;4.00;2.70;;;;;;;;;;5036752;28;20251;-87
2024/01/29 08:41:07;;;;;;;4.90;3.70;;;;;;;;;;5035479;28;20220;-86
2024/01/29 08:43:37;;;;;;;8.37;3.50;;;;;;;;;;5036977;28;20287;-87
2024/01/29 08:46:04;;;;;;;4.57;2.90;;;;;;;;;;5037017;28;20246;-85
2024/01/29 08:48:35;;;;;;;3.77;2.33;;;;;;;;;;5038189;28;20189;-85
2024/01/29 08:51:04;;;;;;;5.67;3.30;;;;;;;;;;5039405;28;20211;-87
2024/01/29 08:53:34;;;;;;;4.50;2.57;;;;;;;;;;5042656;28;20242;-87
2024/01/29 08:56:01;;;;;;;3.27;2.97;;;;;;;;;;5048088;28;20371;-87
2024/01/29 08:58:30;;;;;;;4.37;3.07;;;;;;;;;;5054563;28;20216;-87
2024/01/29 09:01:03;;;;;;;4.27;3.70;;;;;;;;;;5056688;28;20192;-87
2024/01/29 09:03:32;;;;;;;4.27;3.60;;;;;;;;;;5052119;28;20196;-85
2024/01/29 09:06:17;;;;;;;7.00;3.03;;;;;;;;;;5043965;28;20267;-85
2024/01/29 09:08:47;;;;;;;3.70;3.40;;;;;;;;;;5044481;28;20279;-88
2024/01/29 09:11:16;;;;;;;3.93;3.53;;;;;;;;;;5051980;28;20218;-87
2024/01/29 09:13:44;;;;;;;2.90;2.67;;;;;;;;;;5040321;28;20314;-87
2024/01/29 09:16:18;;;;;;;3.13;2.93;;;;;;;;;;5020014;28;20565;-87
2024/01/29 09:18:45;;;;;;;3.73;2.63;;;;;;;;;;5037005;28;20235;-86
2024/01/29 09:21:15;;;;;;;11.13;2.73;;;;;;;;;;5036963;28;20250;-86
2024/01/29 09:23:42;;;;;;;1.57;1.47;;;;;;;;;;5039123;28;20196;-88
2024/01/29 09:26:11;;;;;;;4.20;2.80;;;;;;;;;;5039467;28;20196;-86
2024/01/29 09:28:43;;;;;;;5.47;2.20;;;;;;;;;;5046483;28;20200;-87
2024/01/29 09:31:13;;;;;;;5.90;3.03;;;;;;;;;;5055816;28;20771;-87
2024/01/29 09:33:42;;;;;;;2.70;2.23;;;;;;;;;;5048470;28;20204;-86
2024/01/29 09:36:12;;;;;;;2.00;1.90;;;;;;;;;;5037391;28;20551;-87
2024/01/29 09:38:45;;;;;;;2.73;1.47;;;;;;;;;;5033854;28;20790;-85
2024/01/29 09:41:15;;;;;;;5.07;1.53;;;;;;;;;;5035218;28;20242;-87
2024/01/29 09:43:47;;;;;;;7.60;2.10;;;;;;;;;;5036673;28;20253;-87
2024/01/29 09:46:19;;;;;;;1.80;1.50;;;;;;;;;;5035845;28;20291;-86
2024/01/29 09:48:53;;;;;;;1.30;1.30;;;;;;;;;;5029824;28;20248;-86
2024/01/29 09:51:21;;;;;;;1.90;1.60;;;;;;;;;;5035426;28;20224;-87
2024/01/29 09:53:50;;;;;;;1.87;1.70;;;;;;;;;;5034465;28;20231;-87
2024/01/29 09:56:18;;;;;;;1.27;1.27;;;;;;;;;;5035872;28;20226;-87
2024/01/29 09:58:46;;;;;;;8.20;2.27;;;;;;;;;;5036321;28;20741;-87
2024/01/29 10:01:14;;;;;;;2.63;1.70;;;;;;;;;;5034512;28;20231;-88
2024/01/29 10:03:44;;;;;;;9.40;1.57;;;;;;;;;;5016583;28;20571;-87
2024/01/29 10:06:14;;;;;;;1.57;1.47;;;;;;;;;;5034722;28;20346;-86
2024/01/29 10:08:41;;;;;;;2.03;1.73;;;;;;;;;;5032970;28;20688;-85
2024/01/29 10:11:13;;;;;;;1.67;1.53;;;;;;;;;;5034149;28;20231;-86
2024/01/29 10:13:41;;;;;;;8.93;1.60;;;;;;;;;;5036604;28;20228;-87
2024/01/29 10:16:11;;;;;;;1.00;1.00;;;;;;;;;;5035002;28;20311;-85
2024/01/29 10:18:38;;;;;;;0.73;0.70;;;;;;;;;;5034761;28;20236;-86
2024/01/29 10:21:08;;;;;;;2.10;1.00;;;;;;;;;;5032766;28;20220;-86
2024/01/29 10:23:37;;;;;;;1.30;1.00;;;;;;;;;;5034168;28;20228;-86
2024/01/29 10:26:05;;;;;;;1.57;1.23;;;;;;;;;;5011287;28;20328;-86
2024/01/29 10:28:33;;;;;;;0.97;0.90;;;;;;;;;;5023642;28;20227;-86
2024/01/29 10:31:02;;;;;;;1.07;1.07;;;;;;;;;;5031980;28;20226;-86
2024/01/29 10:33:29;;;;;;;0.77;0.57;;;;;;;;;;5032192;28;20230;-84
2024/01/29 10:36:03;;;;;;;2.20;0.73;;;;;;;;;;5032106;28;20672;-86
2024/01/29 10:38:36;;;;;;;2.30;1.10;;;;;;;;;;5028976;28;20227;-86
2024/01/29 10:41:08;;;;;;;0.67;0.43;;;;;;;;;;5032386;28;20234;-86
2024/01/29 10:43:41;;;;;;;1.10;1.03;;;;;;;;;;5032757;28;20237;-86
2024/01/29 10:46:10;;;;;;;0.87;0.83;;;;;;;;;;5032339;28;20238;-86
2024/01/29 10:48:38;;;;;;;1.23;1.23;;;;;;;;;;5031991;28;20223;-87
2024/01/29 10:51:09;;;;;;;0.97;0.97;;;;;;;;;;5033142;28;20220;-87
2024/01/29 10:53:38;;;;;;;0.50;0.50;;;;;;;;;;5033566;28;20220;-88
2024/01/29 10:56:08;;;;;;;1.03;0.73;;;;;;;;;;5013544;28;20224;-85
2024/01/29 10:58:36;;;;;;;0.63;0.63;;;;;;;;;;5014357;28;20232;-86
2024/01/29 11:01:05;;;;;;;0.83;0.83;;;;;;;;;;5013510;28;20304;-86
2024/01/29 11:03:35;;;;;;;0.50;0.50;;;;;;;;;;5013917;28;20243;-87
2024/01/29 11:06:07;;;;;;;1.57;0.80;;;;;;;;;;5013651;28;20645;-86
2024/01/29 11:08:39;;;;;;;1.20;1.10;;;;;;;;;;5032714;28;20347;-87
2024/01/29 11:11:14;;;;;;;1.83;1.07;;;;;;;;;;5029514;28;20251;-87
2024/01/29 11:13:48;;;;;;;1.73;1.13;;;;;;;;;;5034384;28;20234;-87
2024/01/29 11:16:16;;;;;;;2.40;0.70;;;;;;;;;;5035230;28;20295;-88
2024/01/29 11:18:51;;;;;;;1.17;1.10;;;;;;;;;;5034650;28;20291;-88
2024/01/29 11:21:23;;;;;;;1.00;1.00;;;;;;;;;;5032837;28;20258;-88
2024/01/29 11:23:58;;;;;;;1.13;1.10;;;;;;;;;;5033924;28;20270;-87
2024/01/29 11:26:28;;;;;;;1.03;1.03;;;;;;;;;;5033776;28;20569;-87
2024/01/29 11:28:58;;;;;;;0.97;0.97;;;;;;;;;;5037513;28;20239;-88
2024/01/29 11:31:39;;;;;;;1.90;1.20;;;;;;;;;;5040522;28;20691;-87
2024/01/29 11:34:08;;;;;;;1.07;1.07;;;;;;;;;;5031026;28;20303;-87
2024/01/29 11:36:40;;;;;;;1.40;1.30;;;;;;;;;;5033057;28;20295;-88
2024/01/29 11:39:08;;;;;;;1.27;0.90;;;;;;;;;;5031447;28;20231;-87
2024/01/29 11:41:38;;;;;;;2.17;0.60;;;;;;;;;;5031053;28;20330;-87
2024/01/29 11:44:08;;;;;;;1.40;0.73;;;;;;;;;;5035352;28;20220;-87
2024/01/29 11:46:46;;;;;;;2.40;1.20;;;;;;;;;;5037539;28;20254;-88
2024/01/29 11:49:14;;;;;;;2.53;0.70;;;;;;;;;;5035982;28;20227;-88
2024/01/29 11:51:43;;;;;;;0.63;0.63;;;;;;;;;;5036758;28;20220;-87
2024/01/29 11:54:15;;;;;;;1.77;0.83;;;;;;;;;;5037421;28;20290;-87
2024/01/29 11:56:59;;;;;;;2.73;1.07;;;;;;;;;;5039898;28;20236;-87
2024/01/29 11:59:29;;;;;;;1.13;1.03;;;;;;;;;;5053546;28;20716;-88
2024/01/29 12:02:01;;;;;;;2.23;0.93;;;;;;;;;;5055935;28;20222;-87
2024/01/29 12:04:31;;;;;;;0.73;0.73;;;;;;;;;;5051301;28;20219;-86
2024/01/29 12:06:59;;;;;;;1.33;1.23;;;;;;;;;;5049160;28;20293;-88
2024/01/29 12:09:32;;;;;;;1.20;1.20;;;;;;;;;;5045835;28;20293;-87
2024/01/29 12:12:03;;;;;;;1.00;0.90;;;;;;;;;;5045355;28;20301;-88
2024/01/29 12:14:32;;;;;;;1.60;1.10;;;;;;;;;;5040778;28;20227;-86
2024/01/29 12:17:02;;;;;;;1.40;1.30;;;;;;;;;;5039969;28;20563;-86
2024/01/29 12:19:33;;;;;;;0.60;0.60;;;;;;;;;;5041001;28;20235;-87
2024/01/29 12:22:02;;;;;;;0.70;0.70;;;;;;;;;;5037050;28;20216;-87
2024/01/29 12:24:40;;;;;;;2.57;1.07;;;;;;;;;;5040583;28;20575;-87
2024/01/29 12:27:10;;;;;;;1.60;1.10;;;;;;;;;;5042964;28;20651;-87
2024/01/29 12:29:39;;;;;;;1.57;1.40;;;;;;;;;;5042309;28;20242;-87
2024/01/29 12:32:11;;;;;;;1.40;1.30;;;;;;;;;;5043608;28;20275;-87
2024/01/29 12:34:45;;;;;;;1.70;1.20;;;;;;;;;;5042027;28;20224;-86
2024/01/29 12:37:27;;;;;;;1.30;1.10;;;;;;;;;;5039036;28;20711;-86
2024/01/29 12:40:00;;;;;;;1.37;1.27;;;;;;;;;;5035896;28;20914;-87
2024/01/29 12:42:30;;;;;;;1.20;1.10;;;;;;;;;;5039173;28;20223;-87
2024/01/29 12:45:09;;;;;;;1.30;1.20;;;;;;;;;;5038904;28;20251;-85
2024/01/29 12:47:39;;;;;;;4.33;3.13;;;;;;;;;;5039102;28;20219;-87
2024/01/29 12:50:14;;;;;;;8.70;2.93;;;;;;;;;;5041037;28;20227;-87
2024/01/29 12:52:47;;;;;;;4.43;2.50;;;;;;;;;;5053313;28;20218;-88
2024/01/29 12:55:17;;;;;;;1.57;1.20;;;;;;;;;;5052743;28;20231;-86
2024/01/29 12:58:00;;;;;;;1.17;0.87;;;;;;;;;;5043666;28;20235;-87
2024/01/29 13:00:28;;;;;;;1.30;1.30;;;;;;;;;;5038951;28;20682;-87
2024/01/29 13:02:56;;;;;;;2.37;2.03;;;;;;;;;;5043629;28;20216;-86
2024/01/29 13:05:26;;;;;;;1.10;1.10;;;;;;;;;;5055495;28;20223;-85
2024/01/29 13:07:54;;;;;;;1.90;1.80;;;;;;;;;;5041471;28;20297;-87
2024/01/29 13:10:27;;;;;;;1.80;1.70;;;;;;;;;;5039826;28;20235;-87
2024/01/29 13:13:03;;;;;;;2.43;1.37;;;;;;;;;;5043607;28;20235;-88
2024/01/29 13:15:39;;;;;;;1.37;1.07;;;;;;;;;;5043032;28;20216;-88
2024/01/29 13:18:10;;;;;;;1.53;1.53;;;;;;;;;;5042024;28;20277;-88
2024/01/29 13:20:41;;;;;;;1.53;1.47;;;;;;;;;;5037671;28;20240;-88
2024/01/29 13:23:11;;;;;;;0.90;0.73;;;;;;;;;;5039028;28;20243;-87
2024/01/29 13:25:43;;;;;;;1.27;1.20;;;;;;;;;;5039194;28;20267;-88
2024/01/29 13:28:12;;;;;;;2.13;1.30;;;;;;;;;;5038049;28;20310;-89
2024/01/29 13:30:40;;;;;;;1.03;0.83;;;;;;;;;;5039235;28;20232;-87
2024/01/29 13:33:08;;;;;;;1.10;0.87;;;;;;;;;;5045569;28;20232;-87
2024/01/29 13:35:37;;;;;;;1.10;1.10;;;;;;;;;;5044294;28;20239;-86
2024/01/29 13:38:06;;;;;;;1.03;0.93;;;;;;;;;;5033463;28;20220;-88
2024/01/29 13:40:48;;;;;;;1.53;1.53;;;;;;;;;;5051615;28;20270;-87
2024/01/29 13:43:20;;;;;;;2.57;0.90;;;;;;;;;;5041213;28;20274;-88
2024/01/29 13:45:48;;;;;;;1.17;1.17;;;;;;;;;;5040004;28;20251;-88
2024/01/29 13:48:16;;;;;;;0.90;0.90;;;;;;;;;;5039411;28;20226;-89
2024/01/29 13:50:50;;;;;;;1.43;1.33;;;;;;;;;;5038061;28;20334;-88
2024/01/29 13:53:19;;;;;;;1.10;1.00;;;;;;;;;;5035576;28;20220;-88
2024/01/29 13:55:48;;;;;;;0.90;0.90;;;;;;;;;;5051348;28;20234;-90
2024/01/29 13:58:21;;;;;;;3.83;0.77;;;;;;;;;;5044558;28;20220;-89
2024/01/29 14:00:51;;;;;;;3.73;1.13;;;;;;;;;;5033783;28;20236;-88
2024/01/29 14:03:24;;;;;;;0.93;0.77;;;;;;;;;;5036618;28;20697;-88
2024/01/29 14:05:57;;;;;;;3.10;1.40;;;;;;;;;;5034932;28;20247;-88
2024/01/29 14:08:25;;;;;;;1.13;1.10;;;;;;;;;;5035019;28;20222;-88
2024/01/29 14:10:58;;;;;;;1.87;1.20;;;;;;;;;;5033907;28;20234;-88
2024/01/29 14:13:27;;;;;;;0.70;0.70;;;;;;;;;;5035371;28;20219;-87
2024/01/29 14:16:14;;;;;;;0.57;0.57;;;;;;;;;;5035701;28;20379;-88
2024/01/29 14:18:49;;;;;;;0.60;0.60;;;;;;;;;;5047292;28;20301;-87
2024/01/29 14:21:19;;;;;;;0.77;0.77;;;;;;;;;;5043657;28;20216;-87
2024/01/29 14:23:50;;;;;;;1.20;1.20;;;;;;;;;;5045600;28;20235;-87
2024/01/29 14:26:18;;;;;;;1.20;1.10;;;;;;;;;;5044012;28;20227;-87
2024/01/29 14:28:49;;;;;;;1.23;1.13;;;;;;;;;;5040454;28;21236;-88
2024/01/29 14:31:17;;;;;;;3.93;0.90;;;;;;;;;;5041834;28;20242;-88
2024/01/29 14:33:50;;;;;;;2.20;0.27;;;;;;;;;;5042643;28;20234;-87
2024/01/29 14:36:19;;;;;;;1.00;0.83;;;;;;;;;;5043019;28;20254;-88
2024/01/29 14:38:55;;;;;;;1.30;0.73;;;;;;;;;;5043670;28;20223;-87
2024/01/29 14:41:23;;;;;;;0.77;0.53;;;;;;;;;;5041864;28;20349;-87
2024/01/29 14:43:54;;;;;;;3.60;0.87;;;;;;;;;;5042506;28;20261;-89
2024/01/29 14:46:24;;;;;;;0.97;0.90;;;;;;;;;;5044925;28;20484;-89
2024/01/29 14:48:53;;;;;;;1.07;0.87;;;;;;;;;;5040203;28;20295;-88
2024/01/29 14:51:21;;;;;;;1.43;0.80;;;;;;;;;;5043651;28;20246;-86
2024/01/29 14:53:51;;;;;;;1.90;0.90;;;;;;;;;;5043112;28;20219;-87
2024/01/29 14:56:23;;;;;;;0.40;0.40;;;;;;;;;;5046385;28;20739;-87
2024/01/29 14:58:57;;;;;;;1.03;1.00;;;;;;;;;;5046082;28;20309;-87
2024/01/29 15:01:28;;;;;;;3.50;1.10;;;;;;;;;;5047929;28;20216;-87
2024/01/29 15:04:00;;;;;;;1.60;0.50;;;;;;;;;;5050886;28;20292;-87